Time;durP1;ratioP1;P1;durP2;ratioP2;P2;SDS_P1;SDS_P2;PMS_P1;PMS_P2;Temp;Humidity;BMP_temperature;BMP_pressure;BME280_temperature;BME280_humidity;BME280_pressure;Samples;Min_cycle;Max_cycle;Signal;HPM_P1;HPM_P2
2023/01/10 00:00:24;;;;;;;9.43;5.67;;;6.90;99.90;;;;;;5013708;28;20962;-79
2023/01/10 00:02:52;;;;;;;14.83;6.23;;;7.00;99.90;;;;;;5014298;28;20452;-80
2023/01/10 00:05:18;;;;;;;10.83;7.17;;;7.00;99.90;;;;;;5014293;28;20933;-79
2023/01/10 00:07:46;;;;;;;15.40;6.30;;;7.10;99.90;;;;;;5014036;28;20457;-80
2023/01/10 00:10:13;;;;;;;10.70;5.07;;;7.10;99.90;;;;;;5013590;28;20522;-79
2023/01/10 00:15:25;;;;;;;24.03;6.70;;;7.10;99.90;;;;;;5015237;28;20539;-81
2023/01/10 00:17:52;;;;;;;10.03;5.47;;;7.10;99.90;;;;;;5014824;28;20548;-80
2023/01/10 00:20:19;;;;;;;11.00;5.90;;;7.10;99.90;;;;;;5014505;28;20453;-82
2023/01/10 00:22:46;;;;;;;11.27;6.00;;;7.10;99.90;;;;;;5017040;28;20544;-81
2023/01/10 00:25:14;;;;;;;16.33;6.47;;;7.10;99.90;;;;;;5019188;28;20473;-82
2023/01/10 00:27:42;;;;;;;11.20;6.10;;;7.10;99.90;;;;;;5019695;28;20515;-82
2023/01/10 00:30:12;;;;;;;12.60;6.07;;;7.00;99.90;;;;;;5012276;28;20485;-83
2023/01/10 00:32:42;;;;;;;12.30;6.50;;;7.00;99.90;;;;;;5016823;28;20451;-83
2023/01/10 00:35:09;;;;;;;9.67;6.17;;;7.10;99.90;;;;;;5014749;28;20469;-80
2023/01/10 00:37:37;;;;;;;10.20;5.77;;;7.00;99.90;;;;;;5023397;28;20485;-79
2023/01/10 00:40:07;;;;;;;10.23;5.70;;;7.10;99.90;;;;;;5016954;28;20513;-80
2023/01/10 00:45:19;;;;;;;15.20;6.33;;;7.10;99.90;;;;;;5016966;28;20460;-80
2023/01/10 00:47:47;;;;;;;8.87;5.50;;;7.00;99.90;;;;;;5015529;28;20519;-80
2023/01/10 00:50:14;;;;;;;9.70;4.80;;;7.00;99.90;;;;;;5016301;28;20533;-80
2023/01/10 00:52:44;;;;;;;10.33;5.93;;;7.10;99.90;;;;;;5016282;28;20628;-81
2023/01/10 00:55:11;;;;;;;9.10;5.80;;;7.10;99.90;;;;;;5017020;28;20934;-81
2023/01/10 00:57:40;;;;;;;11.40;6.80;;;7.10;99.90;;;;;;5017656;28;20962;-81
2023/01/10 01:00:09;;;;;;;16.07;6.83;;;7.00;99.90;;;;;;5015878;28;20448;-80
2023/01/10 01:02:38;;;;;;;12.23;6.47;;;7.00;99.90;;;;;;5017385;28;20460;-81
2023/01/10 01:05:07;;;;;;;12.90;6.70;;;7.00;99.90;;;;;;5032652;28;20516;-80
2023/01/10 01:07:34;;;;;;;11.10;6.67;;;7.10;99.90;;;;;;5019177;28;20450;-80
2023/01/10 01:12:45;;;;;;;11.43;5.63;;;6.90;99.90;;;;;;5007856;28;20870;-79
2023/01/10 01:15:12;;;;;;;12.30;5.50;;;6.90;99.90;;;;;;5037287;22;20527;-78
2023/01/10 01:17:39;;;;;;;14.27;5.13;;;6.80;99.90;;;;;;5012723;28;20470;-78
2023/01/10 01:20:09;;;;;;;11.97;4.73;;;6.60;99.90;;;;;;5005153;28;20508;-78
2023/01/10 01:22:36;;;;;;;11.27;5.10;;;6.60;99.90;;;;;;5011157;28;20875;-77
2023/01/10 01:25:07;;;;;;;9.07;5.17;;;6.60;99.90;;;;;;5016753;28;20917;-78
2023/01/10 01:27:36;;;;;;;9.67;4.73;;;6.60;99.90;;;;;;5007658;28;20562;-77
2023/01/10 01:30:05;;;;;;;9.30;4.50;;;6.60;99.90;;;;;;5004073;28;20489;-79
2023/01/10 01:32:31;;;;;;;9.17;4.60;;;6.70;99.90;;;;;;5001462;28;20549;-78
2023/01/10 01:34:58;;;;;;;9.47;5.70;;;6.60;99.90;;;;;;5014355;28;20491;-78
2023/01/10 01:37:29;;;;;;;15.90;6.10;;;6.70;99.90;;;;;;5008313;28;20457;-77
2023/01/10 01:39:56;;;;;;;10.67;5.50;;;6.70;99.90;;;;;;5015223;28;20583;-77
2023/01/10 01:42:26;;;;;;;13.57;5.53;;;6.70;99.90;;;;;;5016544;28;20564;-77
2023/01/10 01:45:39;;;;;;;13.47;5.47;;;6.60;99.90;;;;;;5015395;28;20479;-77
2023/01/10 01:48:15;;;;;;;10.50;4.50;;;6.70;99.90;;;;;;5010974;28;20453;-78
2023/01/10 01:50:48;;;;;;;8.70;3.90;;;6.70;99.90;;;;;;5014880;28;20472;-77
2023/01/10 01:53:24;;;;;;;10.80;5.20;;;6.70;99.90;;;;;;5015274;28;20459;-77
2023/01/10 01:55:53;;;;;;;9.03;4.63;;;6.80;99.90;;;;;;5015090;28;20566;-77
2023/01/10 01:58:27;;;;;;;8.03;4.10;;;6.70;99.90;;;;;;5015228;28;20464;-78
2023/01/10 02:00:53;;;;;;;9.53;4.07;;;6.80;99.90;;;;;;5014967;28;20456;-78
2023/01/10 02:03:20;;;;;;;12.83;4.83;;;6.90;99.90;;;;;;5015871;28;20541;-77
2023/01/10 02:05:47;;;;;;;11.90;4.47;;;6.80;99.90;;;;;;5012890;28;20538;-77
2023/01/10 02:08:16;;;;;;;12.40;4.90;;;6.80;99.90;;;;;;5013777;28;20877;-78
2023/01/10 02:10:49;;;;;;;13.60;4.13;;;6.90;99.90;;;;;;5010202;28;20919;-77
2023/01/10 02:13:19;;;;;;;14.77;4.57;;;6.80;99.90;;;;;;5006380;28;20462;-78
2023/01/10 02:15:46;;;;;;;5.50;3.30;;;6.90;99.90;;;;;;5007542;28;20560;-77
2023/01/10 02:18:13;;;;;;;12.47;4.40;;;6.90;99.90;;;;;;5014518;28;20453;-78
2023/01/10 02:20:57;;;;;;;9.50;4.20;;;6.90;99.90;;;;;;5019753;28;20507;-77
2023/01/10 02:23:57;;;;;;;8.87;3.10;;;6.90;99.90;;;;;;5010884;28;21001;-77
2023/01/10 02:27:03;;;;;;;11.53;2.70;;;6.90;99.90;;;;;;5005654;28;20481;-77
2023/01/10 02:30:05;;;;;;;10.40;3.63;;;6.90;99.90;;;;;;4982248;28;20499;-77
2023/01/10 02:32:40;;;;;;;9.03;3.70;;;6.90;99.90;;;;;;4996033;28;20460;-78
2023/01/10 02:35:48;;;;;;;12.10;3.47;;;6.90;99.90;;;;;;5013288;28;21047;-78
2023/01/10 02:38:23;;;;;;;10.20;3.30;;;6.90;99.90;;;;;;4981046;28;20500;-78
2023/01/10 02:40:57;;;;;;;9.13;3.30;;;7.00;99.90;;;;;;5011175;28;21010;-78
2023/01/10 02:43:29;;;;;;;6.27;2.80;;;7.00;99.90;;;;;;5017466;28;20460;-78
2023/01/10 02:45:59;;;;;;;5.63;2.80;;;7.00;99.90;;;;;;5016133;28;20477;-78
2023/01/10 02:48:27;;;;;;;10.17;3.93;;;7.00;99.90;;;;;;5014811;28;20954;-77
2023/01/10 02:51:00;;;;;;;14.00;4.43;;;6.90;99.90;;;;;;5012518;28;20491;-78
2023/01/10 02:53:32;;;;;;;14.13;4.63;;;6.70;99.90;;;;;;5011145;28;20536;-78
2023/01/10 02:56:12;;;;;;;13.83;4.60;;;6.60;99.90;;;;;;5015120;28;20466;-77
2023/01/10 02:58:53;;;;;;;7.00;3.93;;;6.50;99.90;;;;;;5019677;28;20452;-79
2023/01/10 03:01:31;;;;;;;12.30;4.37;;;6.50;99.90;;;;;;5022499;28;20775;-78
2023/01/10 03:04:08;;;;;;;9.40;5.57;;;6.60;99.90;;;;;;5015359;28;20532;-78
2023/01/10 03:06:43;;;;;;;13.80;4.13;;;6.60;99.90;;;;;;5022184;28;20484;-79
2023/01/10 03:09:16;;;;;;;12.40;4.03;;;6.60;99.90;;;;;;5021000;28;20510;-78
2023/01/10 03:11:47;;;;;;;7.40;5.07;;;6.70;99.90;;;;;;5021603;28;20499;-78
2023/01/10 03:14:17;;;;;;;14.90;4.43;;;6.60;99.90;;;;;;5009827;28;20470;-77
2023/01/10 03:16:48;;;;;;;9.73;3.83;;;6.60;99.90;;;;;;5017727;28;20588;-78
2023/01/10 03:19:21;;;;;;;12.77;4.10;;;6.60;99.90;;;;;;5016486;28;20466;-76
2023/01/10 03:21:52;;;;;;;15.77;4.00;;;6.70;99.90;;;;;;5022965;28;20456;-78
2023/01/10 03:24:26;;;;;;;13.77;3.73;;;6.80;99.90;;;;;;5024214;28;20450;-79
2023/01/10 03:26:57;;;;;;;11.47;3.80;;;6.80;99.90;;;;;;5021857;28;20470;-79
2023/01/10 03:29:29;;;;;;;9.10;3.20;;;6.80;99.90;;;;;;5020937;28;20730;-78
2023/01/10 03:32:02;;;;;;;9.20;3.20;;;6.70;99.90;;;;;;5024751;28;20444;-77
2023/01/10 03:34:31;;;;;;;10.17;3.20;;;6.80;99.90;;;;;;5022494;28;20515;-77
2023/01/10 03:37:05;;;;;;;10.20;2.80;;;6.80;99.90;;;;;;5003244;28;20536;-77
2023/01/10 03:39:40;;;;;;;7.77;3.60;;;6.80;99.90;;;;;;5019291;28;20446;-79
2023/01/10 03:42:12;;;;;;;14.90;4.53;;;6.80;99.90;;;;;;5005599;28;20443;-81
2023/01/10 03:44:46;;;;;;;18.43;3.50;;;6.70;99.90;;;;;;5005900;28;20441;-78
2023/01/10 03:47:19;;;;;;;12.97;2.97;;;6.60;99.90;;;;;;5024476;28;20461;-78
2023/01/10 03:49:49;;;;;;;6.70;2.70;;;6.60;99.90;;;;;;5024811;28;20535;-78
2023/01/10 03:52:18;;;;;;;12.07;3.30;;;6.60;99.90;;;;;;5026413;28;20460;-78
2023/01/10 03:54:46;;;;;;;9.77;2.93;;;6.60;99.90;;;;;;5023845;28;20457;-78
2023/01/10 03:57:18;;;;;;;12.70;2.80;;;6.60;99.90;;;;;;5024098;28;20464;-78
2023/01/10 03:59:46;;;;;;;10.17;3.00;;;6.50;99.90;;;;;;5026281;28;20453;-78
2023/01/10 04:02:12;;;;;;;6.70;2.80;;;6.40;99.90;;;;;;5024645;28;20540;-78
2023/01/10 04:04:39;;;;;;;14.37;4.50;;;6.40;99.90;;;;;;5024665;28;20475;-78
2023/01/10 04:07:08;;;;;;;16.70;3.60;;;6.30;99.90;;;;;;5024501;28;20526;-80
2023/01/10 04:09:34;;;;;;;15.17;4.80;;;6.30;99.90;;;;;;5021593;28;20545;-78
2023/01/10 04:12:02;;;;;;;7.20;3.37;;;6.30;99.90;;;;;;5020907;28;20483;-78
2023/01/10 04:14:31;;;;;;;11.30;3.70;;;6.20;99.90;;;;;;5019492;28;20524;-78
2023/01/10 04:16:58;;;;;;;9.60;3.50;;;6.10;99.90;;;;;;5017072;28;20448;-78
2023/01/10 04:19:25;;;;;;;9.90;4.30;;;6.00;99.90;;;;;;5019056;28;20813;-78
2023/01/10 04:21:52;;;;;;;8.80;2.80;;;5.90;99.90;;;;;;5026867;28;20530;-77
2023/01/10 04:24:20;;;;;;;10.10;3.90;;;5.90;99.90;;;;;;5025807;28;20540;-78
2023/01/10 04:26:47;;;;;;;13.30;3.40;;;5.90;99.90;;;;;;5026204;28;20474;-78
2023/01/10 04:29:13;;;;;;;10.03;3.50;;;5.90;99.90;;;;;;5026304;28;20533;-78
2023/01/10 04:31:40;;;;;;;13.70;4.70;;;6.00;99.90;;;;;;5023354;28;20500;-78
2023/01/10 04:34:07;;;;;;;10.13;4.03;;;6.00;99.90;;;;;;5023229;28;20451;-77
2023/01/10 04:36:35;;;;;;;9.27;3.50;;;6.00;99.90;;;;;;5021165;28;20483;-78
2023/01/10 04:39:02;;;;;;;10.40;2.87;;;6.10;99.90;;;;;;5020796;28;20559;-77
2023/01/10 04:41:30;;;;;;;4.80;2.97;;;6.10;99.90;;;;;;5020636;28;20451;-78
2023/01/10 04:43:57;;;;;;;10.90;3.10;;;6.00;99.90;;;;;;5021346;28;20563;-77
2023/01/10 04:46:24;;;;;;;13.87;4.00;;;5.90;99.90;;;;;;5023686;28;21142;-78
2023/01/10 04:48:51;;;;;;;7.53;3.33;;;5.90;99.90;;;;;;5026323;28;20454;-78
2023/01/10 04:51:17;;;;;;;17.33;3.43;;;5.80;99.90;;;;;;5018809;28;20495;-78
2023/01/10 04:53:44;;;;;;;12.30;3.73;;;5.70;99.90;;;;;;5017457;28;20456;-77
2023/01/10 04:56:18;;;;;;;8.33;1.93;;;5.60;99.90;;;;;;5019388;28;20558;-78
2023/01/10 04:58:47;;;;;;;12.93;3.50;;;5.70;99.90;;;;;;5020018;28;20460;-77
2023/01/10 05:01:15;;;;;;;8.93;2.30;;;5.70;99.90;;;;;;5003493;28;20456;-78
2023/01/10 05:03:42;;;;;;;9.70;3.20;;;5.80;99.90;;;;;;5020506;28;20531;-78
2023/01/10 05:06:09;;;;;;;16.00;3.17;;;5.80;99.90;;;;;;5020396;28;21024;-77
2023/01/10 05:08:36;;;;;;;4.40;1.80;;;5.80;99.90;;;;;;5017859;28;20549;-77
2023/01/10 05:11:03;;;;;;;9.00;2.57;;;5.70;99.90;;;;;;5016546;28;20480;-77
2023/01/10 05:13:30;;;;;;;4.53;2.13;;;5.70;99.90;;;;;;5017785;28;20457;-77
2023/01/10 05:15:58;;;;;;;9.10;2.07;;;5.80;99.90;;;;;;5017044;28;20506;-77
2023/01/10 05:18:25;;;;;;;6.67;2.37;;;5.80;99.90;;;;;;5017744;28;20458;-78
2023/01/10 05:20:52;;;;;;;10.23;3.00;;;5.90;99.90;;;;;;5017272;28;20467;-77
2023/01/10 05:23:19;;;;;;;11.83;2.87;;;5.80;99.90;;;;;;5015567;28;20461;-77
2023/01/10 05:25:46;;;;;;;6.20;2.80;;;5.80;99.90;;;;;;5015547;28;20474;-77
2023/01/10 05:28:13;;;;;;;13.63;3.10;;;5.80;99.90;;;;;;5016657;28;20462;-77
2023/01/10 05:30:40;;;;;;;5.77;2.50;;;5.80;99.90;;;;;;5015853;28;20890;-77
2023/01/10 05:33:08;;;;;;;6.30;2.37;;;5.80;99.90;;;;;;5016902;28;20464;-77
2023/01/10 05:35:35;;;;;;;6.40;2.17;;;5.80;99.90;;;;;;5017105;28;20568;-77
2023/01/10 05:38:01;;;;;;;6.03;2.20;;;5.70;99.90;;;;;;5017637;28;20471;-77
2023/01/10 05:40:28;;;;;;;6.70;2.40;;;5.80;99.90;;;;;;5015397;28;20457;-77
2023/01/10 05:42:55;;;;;;;15.93;3.40;;;5.70;99.90;;;;;;5016476;28;20539;-77
2023/01/10 05:45:22;;;;;;;15.67;4.40;;;5.70;99.90;;;;;;5016448;28;20500;-77
2023/01/10 05:47:49;;;;;;;10.30;2.90;;;5.80;99.90;;;;;;5016824;28;20463;-77
2023/01/10 05:50:17;;;;;;;11.13;2.70;;;5.70;99.90;;;;;;5015267;28;20463;-77
2023/01/10 05:52:44;;;;;;;6.43;2.67;;;5.70;99.90;;;;;;5015652;28;20475;-78
2023/01/10 05:55:11;;;;;;;9.00;2.43;;;5.60;99.90;;;;;;5014263;28;20898;-77
2023/01/10 05:57:38;;;;;;;9.80;2.80;;;5.70;99.90;;;;;;5016638;28;20452;-77
2023/01/10 06:00:06;;;;;;;6.57;2.37;;;5.60;99.90;;;;;;5016900;28;20541;-77
2023/01/10 06:02:33;;;;;;;11.83;3.90;;;5.60;99.90;;;;;;5016818;28;20964;-77
2023/01/10 06:05:00;;;;;;;17.70;4.27;;;5.60;99.90;;;;;;5016046;28;20475;-77
2023/01/10 06:07:28;;;;;;;4.63;2.10;;;5.50;99.90;;;;;;5015876;28;20451;-77
2023/01/10 06:09:54;;;;;;;5.10;2.03;;;5.50;99.90;;;;;;5015273;28;21056;-77
2023/01/10 06:12:21;;;;;;;10.73;2.83;;;5.50;99.90;;;;;;5015555;28;20491;-77
2023/01/10 06:14:48;;;;;;;10.43;2.20;;;5.50;99.90;;;;;;5016068;28;20858;-78
2023/01/10 06:17:15;;;;;;;15.40;3.63;;;5.40;99.90;;;;;;5015029;28;20453;-77
2023/01/10 06:19:42;;;;;;;11.90;2.90;;;5.40;99.90;;;;;;5014332;28;20631;-77
2023/01/10 06:22:08;;;;;;;13.30;3.10;;;5.40;99.90;;;;;;5015846;28;20875;-77
2023/01/10 06:24:37;;;;;;;12.57;3.10;;;5.30;99.90;;;;;;5015250;28;20547;-77
2023/01/10 06:27:03;;;;;;;11.63;3.70;;;5.30;99.90;;;;;;5016374;28;20482;-77
2023/01/10 06:29:30;;;;;;;19.40;4.33;;;5.30;99.90;;;;;;5015482;28;20829;-77
2023/01/10 06:31:57;;;;;;;10.00;3.00;;;5.30;99.90;;;;;;5018187;28;21022;-77
2023/01/10 06:34:24;;;;;;;13.27;2.90;;;5.30;99.90;;;;;;5016917;28;20454;-77
2023/01/10 06:36:51;;;;;;;13.67;2.70;;;5.30;99.90;;;;;;5017235;28;21001;-78
2023/01/10 06:39:18;;;;;;;13.77;3.13;;;5.50;99.90;;;;;;5020963;28;20537;-77
2023/01/10 06:41:46;;;;;;;15.63;3.90;;;5.60;99.90;;;;;;5022020;28;20902;-78
2023/01/10 06:44:13;;;;;;;9.00;3.17;;;5.70;99.90;;;;;;5020217;28;20470;-78
2023/01/10 06:46:39;;;;;;;21.00;4.90;;;5.80;99.90;;;;;;5016890;28;20530;-77
2023/01/10 06:49:07;;;;;;;12.03;3.00;;;5.80;99.90;;;;;;5020493;28;20523;-78
2023/01/10 06:51:34;;;;;;;8.80;3.30;;;5.90;99.90;;;;;;5025907;28;20527;-78
2023/01/10 06:54:01;;;;;;;8.70;2.60;;;5.90;99.90;;;;;;5027545;28;20522;-78
2023/01/10 06:56:27;;;;;;;12.40;4.20;;;5.90;99.90;;;;;;5024187;28;20550;-78
2023/01/10 06:58:56;;;;;;;9.23;2.80;;;5.80;99.90;;;;;;5015650;28;20531;-78
2023/01/10 07:01:22;;;;;;;20.07;3.10;;;5.80;99.90;;;;;;5010078;28;20450;-77
2023/01/10 07:03:49;;;;;;;11.00;2.87;;;5.90;99.90;;;;;;5013183;28;20480;-78
2023/01/10 07:06:16;;;;;;;10.23;4.23;;;5.90;99.90;;;;;;5002969;28;20473;-78
2023/01/10 07:08:44;;;;;;;10.33;3.37;;;6.00;99.90;;;;;;5015770;28;20487;-78
2023/01/10 07:11:15;;;;;;;12.27;3.73;;;6.00;99.90;;;;;;5011834;28;20489;-78
2023/01/10 07:13:42;;;;;;;11.90;3.83;;;6.00;99.90;;;;;;5016871;28;20441;-77
2023/01/10 07:16:12;;;;;;;10.10;3.60;;;6.00;99.90;;;;;;5048102;23;20531;-81
2023/01/10 07:18:40;;;;;;;9.40;3.23;;;5.90;99.90;;;;;;5027729;28;20487;-79
2023/01/10 07:21:08;;;;;;;12.20;3.77;;;5.90;99.90;;;;;;5026537;28;20459;-79
2023/01/10 07:23:34;;;;;;;12.53;2.93;;;6.00;99.90;;;;;;5031943;28;20457;-80
2023/01/10 07:26:03;;;;;;;10.03;2.90;;;6.00;99.90;;;;;;5031872;28;20478;-81
2023/01/10 07:28:30;;;;;;;22.33;3.70;;;6.10;99.90;;;;;;5031839;28;20455;-82
2023/01/10 07:30:58;;;;;;;11.03;3.10;;;6.10;99.90;;;;;;5028894;28;21087;-80
2023/01/10 07:33:27;;;;;;;17.60;4.00;;;6.00;99.90;;;;;;5035251;28;20525;-80
2023/01/10 07:35:54;;;;;;;12.53;3.40;;;6.10;99.90;;;;;;5027968;28;21221;-80
2023/01/10 07:38:21;;;;;;;10.53;3.23;;;6.00;99.90;;;;;;5027887;28;20466;-80
2023/01/10 07:40:47;;;;;;;12.63;3.00;;;6.10;99.90;;;;;;5021171;28;20458;-79
2023/01/10 07:43:14;;;;;;;15.33;3.97;;;6.00;99.90;;;;;;5027738;28;20499;-80
2023/01/10 07:45:41;;;;;;;16.43;3.73;;;6.10;99.90;;;;;;5028138;28;20567;-80
2023/01/10 07:48:09;;;;;;;19.37;4.13;;;6.10;99.90;;;;;;5025554;28;20525;-80
2023/01/10 07:50:38;;;;;;;11.77;3.10;;;6.10;99.90;;;;;;5024564;28;20455;-79
2023/01/10 07:53:07;;;;;;;12.03;4.50;;;6.10;99.90;;;;;;5026937;28;20496;-79
2023/01/10 07:55:37;;;;;;;26.47;4.70;;;6.10;99.90;;;;;;5022191;28;20981;-78
2023/01/10 07:58:05;;;;;;;14.73;4.10;;;6.10;99.90;;;;;;5032637;28;20472;-78
2023/01/10 08:00:32;;;;;;;8.40;3.60;;;6.10;99.90;;;;;;5021548;28;20524;-79
2023/01/10 08:02:59;;;;;;;20.23;5.63;;;6.10;99.90;;;;;;5024055;28;20452;-79
2023/01/10 08:05:26;;;;;;;11.50;4.87;;;6.10;99.90;;;;;;5031490;28;20549;-79
2023/01/10 08:07:58;;;;;;;18.37;4.10;;;6.10;99.90;;;;;;5028845;28;20453;-79
2023/01/10 08:10:25;;;;;;;16.90;3.87;;;6.20;99.90;;;;;;5030139;28;20518;-79
2023/01/10 08:12:52;;;;;;;15.03;4.73;;;6.30;99.90;;;;;;5027730;28;20490;-78
2023/01/10 08:15:19;;;;;;;15.63;3.93;;;6.30;99.90;;;;;;5020446;28;20460;-79
2023/01/10 08:17:46;;;;;;;19.07;4.00;;;6.40;99.90;;;;;;5019696;28;20460;-79
2023/01/10 08:20:13;;;;;;;16.60;3.87;;;6.40;99.90;;;;;;5024250;28;20457;-78
2023/01/10 08:22:39;;;;;;;15.23;5.07;;;6.50;99.90;;;;;;5026163;28;20833;-79
2023/01/10 08:25:08;;;;;;;18.83;3.93;;;6.50;99.90;;;;;;5024577;28;20467;-80
2023/01/10 08:27:35;;;;;;;15.90;3.60;;;6.50;99.90;;;;;;5014140;28;20499;-79
2023/01/10 08:30:03;;;;;;;16.47;4.37;;;6.50;99.90;;;;;;5020524;28;20460;-79
2023/01/10 08:32:29;;;;;;;11.00;4.00;;;6.40;99.90;;;;;;5030435;28;20494;-79
2023/01/10 08:34:56;;;;;;;18.70;4.77;;;6.60;99.90;;;;;;5024221;28;20465;-79
2023/01/10 08:37:23;;;;;;;10.57;3.40;;;6.60;99.90;;;;;;5023939;28;20499;-79
2023/01/10 08:39:50;;;;;;;10.23;2.80;;;6.70;99.90;;;;;;5020243;28;20966;-79
2023/01/10 08:42:18;;;;;;;11.63;3.50;;;6.70;99.90;;;;;;5027219;28;20851;-81
2023/01/10 08:44:45;;;;;;;12.50;4.07;;;6.70;99.90;;;;;;5031371;28;20452;-82
2023/01/10 08:47:13;;;;;;;14.90;3.87;;;6.70;99.90;;;;;;5027179;28;20481;-82
2023/01/10 08:49:40;;;;;;;13.30;3.67;;;6.80;99.90;;;;;;5020541;28;20468;-80
2023/01/10 08:52:06;;;;;;;10.40;3.93;;;6.60;99.90;;;;;;5033513;28;20583;-80
2023/01/10 08:54:33;;;;;;;14.37;3.83;;;6.70;99.90;;;;;;5033447;28;21036;-81
2023/01/10 08:57:00;;;;;;;12.23;3.23;;;6.80;99.90;;;;;;5031259;28;20479;-80
2023/01/10 08:59:28;;;;;;;31.97;5.37;;;6.90;99.90;;;;;;5025384;28;20489;-81
2023/01/10 09:01:57;;;;;;;16.00;3.67;;;6.80;99.90;;;;;;5033484;28;20812;-80
2023/01/10 09:04:25;;;;;;;11.80;3.20;;;6.70;99.90;;;;;;5033396;28;20552;-81
2023/01/10 09:06:51;;;;;;;9.33;3.27;;;6.70;99.90;;;;;;5031508;28;20925;-81
2023/01/10 09:09:18;;;;;;;10.30;3.10;;;6.70;99.90;;;;;;5036193;28;20466;-82
2023/01/10 09:11:45;;;;;;;10.80;3.73;;;6.60;99.90;;;;;;5026192;28;20574;-81
2023/01/10 09:14:12;;;;;;;15.50;3.20;;;6.70;99.90;;;;;;5034258;28;20467;-82
2023/01/10 09:16:40;;;;;;;13.20;2.80;;;6.70;99.90;;;;;;5026380;28;20890;-82
2023/01/10 09:19:07;;;;;;;12.73;3.30;;;6.70;99.90;;;;;;5034484;28;20455;-81
2023/01/10 09:21:34;;;;;;;12.07;3.20;;;6.70;99.90;;;;;;5030015;28;20457;-79
2023/01/10 09:24:00;;;;;;;27.90;4.87;;;6.80;99.90;;;;;;5031953;28;20454;-82
2023/01/10 09:26:27;;;;;;;15.60;3.30;;;6.80;99.90;;;;;;5021314;28;20483;-82
2023/01/10 09:28:54;;;;;;;18.83;4.80;;;6.80;99.90;;;;;;5031593;28;20551;-81
2023/01/10 09:31:21;;;;;;;21.90;2.60;;;6.80;99.90;;;;;;5031894;28;20466;-82
2023/01/10 09:33:49;;;;;;;19.43;4.57;;;7.10;99.90;;;;;;5036025;28;21073;-82
2023/01/10 09:36:16;;;;;;;15.07;3.27;;;7.30;99.90;;;;;;5030746;28;20474;-82
2023/01/10 09:38:43;;;;;;;17.50;3.70;;;7.30;99.90;;;;;;5019168;28;20479;-82
2023/01/10 09:41:34;;;;;;;13.80;3.27;;;7.60;99.90;;;;;;5024696;28;20470;-82
2023/01/10 09:44:05;;;;;;;9.73;2.47;;;7.70;99.90;;;;;;5039839;28;20441;-81
2023/01/10 09:46:47;;;;;;;12.97;3.30;;;7.90;99.90;;;;;;5027481;28;20480;-81
2023/01/10 09:49:39;;;;;;;11.30;3.47;;;8.10;99.90;;;;;;5029153;28;20445;-80
2023/01/10 09:52:17;;;;;;;24.47;4.73;;;8.10;99.90;;;;;;5027614;28;20502;-80
2023/01/10 09:54:44;;;;;;;19.70;4.90;;;8.20;99.90;;;;;;5025365;28;20458;-81
2023/01/10 09:57:17;;;;;;;13.27;3.40;;;8.30;99.90;;;;;;5034521;28;20472;-81
2023/01/10 09:59:47;;;;;;;15.57;3.17;;;8.50;99.90;;;;;;5029779;28;20457;-81
2023/01/10 10:02:23;;;;;;;12.27;4.30;;;8.60;99.90;;;;;;5032390;28;20457;-82
2023/01/10 10:05:06;;;;;;;14.10;3.97;;;8.50;99.90;;;;;;5027402;28;20954;-81
2023/01/10 10:07:33;;;;;;;13.93;3.60;;;8.20;99.90;;;;;;5030584;28;20468;-80
2023/01/10 10:10:00;;;;;;;20.80;4.73;;;8.00;99.90;;;;;;5028975;28;20457;-82
2023/01/10 10:12:36;;;;;;;25.67;3.50;;;8.10;99.90;;;;;;5034518;28;20492;-80
2023/01/10 10:15:15;;;;;;;18.47;4.07;;;8.00;99.90;;;;;;5032420;28;20475;-82
2023/01/10 10:17:49;;;;;;;14.80;3.20;;;8.00;99.90;;;;;;5025261;28;20725;-79
2023/01/10 10:20:42;;;;;;;11.93;3.20;;;8.00;99.90;;;;;;5024421;28;20445;-80
2023/01/10 10:23:23;;;;;;;16.50;3.03;;;8.10;99.90;;;;;;5032575;28;20452;-80
2023/01/10 10:26:04;;;;;;;11.83;3.37;;;8.30;99.90;;;;;;5034073;28;20469;-80
2023/01/10 10:28:57;;;;;;;12.73;3.60;;;8.20;99.90;;;;;;5032169;28;20981;-81
2023/01/10 10:31:40;;;;;;;13.50;4.23;;;8.40;99.90;;;;;;5023756;28;20460;-81
2023/01/10 10:34:13;;;;;;;18.03;3.80;;;8.40;99.90;;;;;;5033448;28;20459;-81
2023/01/10 10:36:47;;;;;;;13.27;3.93;;;8.40;99.90;;;;;;5021959;28;20491;-80
2023/01/10 10:39:18;;;;;;;21.37;4.00;;;8.30;99.90;;;;;;5018074;28;20453;-79
2023/01/10 10:41:48;;;;;;;16.90;3.97;;;8.40;99.90;;;;;;5025903;28;20456;-80
2023/01/10 10:44:30;;;;;;;14.63;4.77;;;8.30;99.90;;;;;;5028612;28;20832;-80
2023/01/10 10:46:58;;;;;;;16.53;4.17;;;8.30;99.90;;;;;;5030807;28;20470;-80
2023/01/10 10:49:36;;;;;;;17.57;3.90;;;8.50;99.90;;;;;;5015862;28;20810;-80
2023/01/10 10:52:14;;;;;;;18.50;3.57;;;8.60;99.90;;;;;;5023038;28;20478;-80
2023/01/10 10:54:41;;;;;;;15.27;4.03;;;8.70;99.90;;;;;;5033077;28;20457;-81
2023/01/10 10:57:09;;;;;;;13.53;3.17;;;8.60;99.90;;;;;;5017038;28;20978;-80
2023/01/10 10:59:36;;;;;;;14.13;2.90;;;8.40;99.90;;;;;;5029355;28;20457;-81
2023/01/10 11:02:03;;;;;;;18.10;3.83;;;8.70;99.90;;;;;;5025393;28;20829;-80
2023/01/10 11:04:31;;;;;;;14.00;2.87;;;8.80;99.90;;;;;;5029899;28;20450;-80
2023/01/10 11:06:58;;;;;;;13.13;3.43;;;8.70;99.90;;;;;;5030014;28;20464;-80
2023/01/10 11:09:31;;;;;;;11.13;2.73;;;8.60;99.90;;;;;;5027917;28;20455;-80
2023/01/10 11:11:58;;;;;;;15.60;3.47;;;8.70;99.90;;;;;;5023707;28;20483;-80
2023/01/10 11:14:44;;;;;;;11.63;3.43;;;8.80;99.90;;;;;;5032137;28;20473;-82
2023/01/10 11:17:19;;;;;;;10.83;3.37;;;8.80;99.90;;;;;;5014414;28;20855;-81
2023/01/10 11:19:55;;;;;;;17.20;4.93;;;8.90;99.90;;;;;;5013482;28;20477;-81
2023/01/10 11:22:23;;;;;;;20.33;3.63;;;9.00;99.90;;;;;;5031960;28;20504;-81
2023/01/10 11:24:55;;;;;;;12.90;4.77;;;9.10;99.90;;;;;;5034155;28;20458;-82
2023/01/10 11:27:25;;;;;;;9.70;3.10;;;9.00;99.90;;;;;;5034386;28;20474;-82
2023/01/10 11:29:56;;;;;;;15.33;3.47;;;9.10;99.90;;;;;;5033173;28;20463;-81
2023/01/10 11:32:30;;;;;;;10.03;2.60;;;9.20;99.90;;;;;;5018144;28;21026;-82
2023/01/10 11:35:00;;;;;;;11.40;3.10;;;9.40;99.90;;;;;;5033862;28;20439;-83
2023/01/10 11:37:31;;;;;;;18.60;3.87;;;9.40;99.90;;;;;;5032469;28;20483;-80
2023/01/10 11:40:27;;;;;;;17.40;3.70;;;9.40;99.90;;;;;;5031575;28;20869;-80
2023/01/10 11:42:55;;;;;;;17.50;4.07;;;9.30;99.90;;;;;;4968502;28;20847;-78
2023/01/10 11:45:26;;;;;;;15.00;4.73;;;9.40;99.90;;;;;;5019185;28;20460;-81
2023/01/10 11:47:57;;;;;;;15.50;3.17;;;9.00;99.90;;;;;;5024513;28;20450;-82
2023/01/10 11:50:26;;;;;;;14.60;3.07;;;8.90;99.90;;;;;;5025881;28;20511;-78
2023/01/10 11:52:54;;;;;;;8.17;2.87;;;9.10;99.90;;;;;;5037428;28;20494;-80
2023/01/10 11:55:24;;;;;;;23.17;4.43;;;9.00;99.90;;;;;;5042786;28;20548;-80
2023/01/10 11:58:05;;;;;;;7.93;2.57;;;9.00;99.90;;;;;;5032728;28;20453;-80
2023/01/10 12:00:39;;;;;;;6.47;2.07;;;9.10;99.90;;;;;;5021393;28;20533;-80
2023/01/10 12:03:21;;;;;;;11.80;3.20;;;9.20;99.90;;;;;;5020548;28;20464;-82
2023/01/10 12:05:56;;;;;;;12.17;3.33;;;9.20;99.90;;;;;;5022347;28;20478;-82
2023/01/10 12:08:32;;;;;;;17.23;3.60;;;9.00;99.90;;;;;;5032325;28;21033;-81
2023/01/10 12:11:01;;;;;;;8.70;2.57;;;9.20;99.90;;;;;;5029223;28;20990;-80
2023/01/10 12:13:42;;;;;;;13.70;3.30;;;9.30;99.90;;;;;;5029084;28;20489;-82
2023/01/10 12:16:17;;;;;;;18.90;3.33;;;9.20;99.90;;;;;;5018306;28;20503;-81
2023/01/10 12:18:44;;;;;;;18.70;3.40;;;9.00;99.90;;;;;;5034407;28;20455;-81
2023/01/10 12:21:13;;;;;;;10.20;3.73;;;9.00;99.90;;;;;;5035873;28;20453;-81
2023/01/10 12:23:43;;;;;;;13.13;3.50;;;8.90;99.90;;;;;;5027129;28;20442;-80
2023/01/10 12:26:12;;;;;;;11.57;3.20;;;8.90;99.90;;;;;;5028102;28;20479;-81
2023/01/10 12:28:44;;;;;;;14.13;3.50;;;8.90;99.90;;;;;;5032186;28;20451;-80
2023/01/10 12:31:14;;;;;;;19.10;5.13;;;8.90;99.90;;;;;;5018685;28;20468;-81
2023/01/10 12:33:46;;;;;;;11.70;3.37;;;8.90;99.90;;;;;;5042165;28;20484;-81
2023/01/10 12:36:23;;;;;;;9.50;3.50;;;8.80;99.90;;;;;;5040814;28;20473;-82
2023/01/10 12:39:05;;;;;;;16.23;4.40;;;8.80;99.90;;;;;;5035951;28;20456;-81
2023/01/10 12:44:32;;;;;;;13.53;2.53;;;8.80;99.90;;;;;;5027723;28;20429;-80
2023/01/10 12:47:07;;;;;;;14.00;2.90;;;8.90;99.90;;;;;;5037042;28;20499;-80
2023/01/10 12:49:37;;;;;;;12.83;3.23;;;8.80;99.90;;;;;;5039340;28;20894;-82
2023/01/10 12:52:08;;;;;;;13.97;3.87;;;8.90;99.90;;;;;;5043704;28;20451;-81
2023/01/10 12:54:34;;;;;;;10.53;3.20;;;8.90;99.90;;;;;;5035743;28;20472;-80
2023/01/10 12:57:06;;;;;;;11.13;2.80;;;9.00;99.90;;;;;;5034389;28;20537;-83
2023/01/10 12:59:37;;;;;;;10.90;4.20;;;9.10;99.90;;;;;;5026977;28;20546;-81
2023/01/10 13:02:07;;;;;;;12.20;3.47;;;9.10;99.90;;;;;;5019748;28;20977;-83
2023/01/10 13:04:37;;;;;;;12.40;2.70;;;9.30;99.90;;;;;;5019393;28;20848;-81
2023/01/10 13:07:05;;;;;;;14.20;3.03;;;9.50;99.90;;;;;;5017841;28;20501;-83
2023/01/10 13:09:33;;;;;;;16.07;2.97;;;9.60;99.90;;;;;;5017265;28;20550;-80
2023/01/10 13:12:06;;;;;;;10.73;2.73;;;9.60;99.90;;;;;;5025320;28;20458;-82
2023/01/10 13:14:40;;;;;;;6.20;2.97;;;9.70;99.90;;;;;;5036909;28;20557;-83